Time;durP1;ratioP1;P1;durP2;ratioP2;P2;SDS_P1;SDS_P2;PMS_P1;PMS_P2;Temp;Humidity;BMP_temperature;BMP_pressure;BME280_temperature;BME280_humidity;BME280_pressure;Samples;Min_cycle;Max_cycle;Signal;HPM_P1;HPM_P2
2022/03/30 00:01:55;;;;;;;10.63;6.90;;;;;;;-0.57;74.84;98508.80;1822430;78;21036;-63
2022/03/30 00:04:22;;;;;;;11.35;7.03;;;;;;;-0.57;74.84;98508.80;1821543;78;21543;-63
2022/03/30 00:06:49;;;;;;;15.30;7.97;;;;;;;-0.54;74.87;98505.72;1818824;78;20932;-63
2022/03/30 00:09:16;;;;;;;12.28;7.85;;;;;;;-0.52;74.80;98506.98;1810452;78;20935;-63
2022/03/30 00:11:43;;;;;;;10.63;7.80;;;;;;;-0.47;74.87;98510.30;1823649;78;22256;-63
2022/03/30 00:14:10;;;;;;;10.15;7.20;;;;;;;-0.44;74.86;98514.08;1817983;77;20965;-62
2022/03/30 00:16:43;;;;;;;14.07;8.00;;;;;;;-0.37;74.92;98514.33;1823553;77;20927;-62
2022/03/30 00:19:09;;;;;;;14.25;7.25;;;;;;;-0.35;74.79;98512.58;1825147;77;20942;-63
2022/03/30 00:21:37;;;;;;;14.10;6.95;;;;;;;-0.31;74.84;98518.06;1818472;78;21025;-63
2022/03/30 00:24:06;;;;;;;12.85;7.25;;;;;;;-0.30;74.93;98515.89;1818016;78;22331;-62
2022/03/30 00:26:34;;;;;;;12.13;6.33;;;;;;;-0.27;74.94;98508.12;1820729;78;21588;-67
2022/03/30 00:29:02;;;;;;;9.25;6.28;;;;;;;-0.27;75.02;98507.28;1773545;78;20992;-62
2022/03/30 00:31:28;;;;;;;11.20;6.35;;;;;;;-0.31;75.01;98506.52;1771303;80;21012;-62
2022/03/30 00:33:55;;;;;;;10.28;5.75;;;;;;;-0.33;75.03;98499.73;1776548;80;21549;-62
2022/03/30 00:36:22;;;;;;;10.23;5.50;;;;;;;-0.36;75.05;98503.20;1775616;79;21428;-62
2022/03/30 00:38:51;;;;;;;8.45;4.85;;;;;;;-0.40;75.12;98499.45;1774175;79;20950;-62
2022/03/30 00:41:21;;;;;;;8.43;4.83;;;;;;;-0.44;75.19;98502.53;1778737;79;21645;-62
2022/03/30 00:43:48;;;;;;;7.90;5.03;;;;;;;-0.46;75.27;98502.55;1772402;79;20976;-63
2022/03/30 00:46:16;;;;;;;10.90;5.72;;;;;;;-0.47;75.38;98497.48;1774517;79;20997;-63
2022/03/30 00:48:43;;;;;;;13.50;6.30;;;;;;;-0.46;75.45;98500.44;1782032;79;21128;-62
2022/03/30 00:51:10;;;;;;;9.23;5.70;;;;;;;-0.46;75.50;98503.00;1775216;79;21614;-62
2022/03/30 00:53:37;;;;;;;12.13;5.70;;;;;;;-0.45;75.58;98498.27;1737179;82;20990;-62
2022/03/30 00:56:06;;;;;;;8.63;5.73;;;;;;;-0.43;75.55;98499.08;1759280;80;21096;-62
2022/03/30 00:58:36;;;;;;;11.05;5.50;;;;;;;-0.42;75.58;98495.66;1760444;80;20960;-62
2022/03/30 01:01:02;;;;;;;;;;;;;;;-0.40;75.53;98496.44;1778013;79;21487;-62
2022/03/30 01:03:29;;;;;;;8.05;4.83;;;;;;;-0.39;75.71;98492.15;1760244;80;20170;-62
2022/03/30 01:05:55;;;;;;;12.63;5.85;;;;;;;-0.39;75.70;98493.02;1763918;80;21874;-62
2022/03/30 01:08:22;;;;;;;9.50;5.47;;;;;;;-0.37;75.67;98489.95;1762055;80;20986;-62
2022/03/30 01:10:50;;;;;;;11.55;6.15;;;;;;;-0.35;75.66;98481.80;1763639;80;20950;-62
2022/03/30 01:13:18;;;;;;;9.13;5.62;;;;;;;-0.34;75.76;98480.91;1736556;81;21258;-62
2022/03/30 01:15:47;;;;;;;14.23;5.00;;;;;;;-0.38;75.79;98476.74;1728866;81;20970;-63
2022/03/30 01:18:13;;;;;;;7.92;4.83;;;;;;;-0.37;75.84;98479.70;1739298;81;20997;-62
2022/03/30 01:20:40;;;;;;;8.35;5.37;;;;;;;-0.38;76.00;98471.61;1741965;81;21610;-62
2022/03/30 01:23:07;;;;;;;10.23;4.47;;;;;;;-0.38;76.09;98473.34;1750576;81;20993;-63
2022/03/30 01:25:34;;;;;;;14.00;5.10;;;;;;;-0.37;76.12;98475.85;1745679;81;21536;-63
2022/03/30 01:28:01;;;;;;;8.03;4.10;;;;;;;-0.37;76.11;98464.31;1754150;80;21013;-62
2022/03/30 01:33:13;;;;;;;11.12;4.55;;;;;;;-0.36;76.15;98467.30;1763528;81;21009;-63
2022/03/30 01:35:43;;;;;;;8.25;4.30;;;;;;;-0.36;76.23;98463.45;1761905;81;21032;-62
2022/03/30 01:38:10;;;;;;;9.28;3.90;;;;;;;-0.35;76.34;98458.72;1768577;81;21515;-63
2022/03/30 01:40:38;;;;;;;12.43;4.47;;;;;;;-0.35;76.39;98457.44;1761638;81;21577;-62
2022/03/30 01:43:05;;;;;;;10.40;4.60;;;;;;;-0.36;76.42;98457.05;1770298;79;20997;-62
2022/03/30 01:45:32;;;;;;;8.10;4.35;;;;;;;-0.36;76.44;98453.64;1760408;81;21041;-62
2022/03/30 01:48:00;;;;;;;12.75;3.92;;;;;;;-0.35;76.62;98445.89;1762482;79;21048;-62
2022/03/30 01:50:29;;;;;;;7.87;4.05;;;;;;;-0.34;76.61;98450.13;1765301;81;21206;-62
2022/03/30 01:52:57;;;;;;;7.92;3.80;;;;;;;-0.34;76.66;98447.56;1758706;81;20985;-63
2022/03/30 01:55:24;;;;;;;10.40;4.72;;;;;;;-0.32;76.71;98445.81;1762810;80;21899;-63
2022/03/30 01:57:51;;;;;;;7.25;3.80;;;;;;;-0.30;76.65;98442.78;1766072;80;21012;-62
2022/03/30 02:00:24;;;;;;;9.75;4.17;;;;;;;-0.30;76.67;98441.50;1761052;79;20890;-62
2022/03/30 02:02:50;;;;;;;9.03;4.20;;;;;;;-0.30;76.69;98444.06;1768722;81;21127;-62
2022/03/30 02:05:18;;;;;;;7.65;3.80;;;;;;;-0.31;76.72;98427.00;1764863;79;20989;-62
2022/03/30 02:07:47;;;;;;;6.45;4.12;;;;;;;-0.30;76.76;98432.97;1759942;81;20922;-62
2022/03/30 02:10:14;;;;;;;9.23;3.92;;;;;;;-0.29;76.81;98432.08;1762090;79;21084;-62
2022/03/30 02:12:41;;;;;;;8.98;4.53;;;;;;;-0.27;76.88;98436.30;1765420;79;22504;-62
2022/03/30 02:15:22;;;;;;;6.12;3.70;;;;;;;-0.19;76.96;98432.72;1850997;76;21939;-62
2022/03/30 02:17:49;;;;;;;7.25;4.35;;;;;;;-0.20;76.93;98433.58;1811793;78;21040;-63
2022/03/30 02:20:16;;;;;;;8.85;5.05;;;;;;;-0.19;76.90;98434.00;1785016;78;21937;-63
2022/03/30 02:22:43;;;;;;;10.20;4.37;;;;;;;-0.16;76.98;98444.18;1808482;77;21024;-63
2022/03/30 02:25:10;;;;;;;10.23;4.62;;;;;;;-0.15;76.93;98438.16;1792761;78;21060;-63
2022/03/30 02:27:38;;;;;;;7.75;5.30;;;;;;;-0.14;77.00;98441.11;1797955;78;20993;-63
2022/03/30 02:30:07;;;;;;;13.38;4.83;;;;;;;-0.18;77.10;98438.23;1799739;78;21295;-63
2022/03/30 02:32:34;;;;;;;9.73;4.80;;;;;;;-0.21;77.16;98437.03;1795033;78;21241;-63
2022/03/30 02:35:01;;;;;;;12.78;4.70;;;;;;;-0.17;77.20;98436.06;1801147;78;20944;-63
2022/03/30 02:37:28;;;;;;;12.80;5.10;;;;;;;-0.12;77.22;98435.07;1794361;78;20979;-63
2022/03/30 02:39:54;;;;;;;12.13;5.20;;;;;;;-0.06;77.11;98444.34;1799040;78;21014;-63
2022/03/30 02:42:21;;;;;;;7.87;4.47;;;;;;;-0.08;77.25;98444.84;1789860;80;20938;-63
2022/03/30 02:44:48;;;;;;;8.98;5.40;;;;;;;-0.17;77.18;98439.91;1785950;77;21641;-63
2022/03/30 02:47:15;;;;;;;13.37;4.87;;;;;;;-0.21;77.90;98442.16;1789598;77;20978;-63
2022/03/30 02:49:41;;;;;;;6.17;3.92;;;;;;;-0.28;77.64;98442.31;1786707;79;21090;-63
2022/03/30 02:52:08;;;;;;;10.23;5.22;;;;;;;-0.30;77.83;98446.63;1791007;79;20932;-63
2022/03/30 02:54:35;;;;;;;8.70;5.13;;;;;;;-0.35;77.92;98445.89;1788868;78;21019;-63
2022/03/30 02:57:02;;;;;;;7.17;4.33;;;;;;;-0.36;77.72;98441.66;1787520;79;22188;-63
2022/03/30 02:59:28;;;;;;;10.28;4.58;;;;;;;-0.33;77.86;98444.14;1789579;78;21591;-63
2022/03/30 03:01:58;;;;;;;11.68;4.75;;;;;;;-0.28;77.82;98444.88;1787018;78;21048;-63
2022/03/30 03:04:24;;;;;;;9.08;4.85;;;;;;;-0.25;77.83;98443.52;1793700;79;21003;-63
2022/03/30 03:06:51;;;;;;;11.35;4.30;;;;;;;-0.21;77.81;98447.30;1790647;79;20966;-63
2022/03/30 03:09:18;;;;;;;9.23;4.05;;;;;;;-0.17;77.79;98441.20;1794948;78;21228;-63
2022/03/30 03:11:45;;;;;;;12.73;4.42;;;;;;;-0.17;78.00;98443.76;1809898;78;21737;-64
2022/03/30 03:14:12;;;;;;;9.63;4.72;;;;;;;-0.24;78.29;98443.91;1792861;79;20977;-63
2022/03/30 03:16:39;;;;;;;10.30;4.37;;;;;;;-0.26;78.07;98435.41;1793142;79;21022;-63
2022/03/30 03:19:06;;;;;;;8.60;4.25;;;;;;;-0.23;78.11;98437.89;1796266;79;20918;-63
2022/03/30 03:21:33;;;;;;;10.80;4.40;;;;;;;-0.25;78.15;98435.83;1790007;79;21034;-63
2022/03/30 03:24:00;;;;;;;13.45;5.08;;;;;;;-0.23;78.30;98439.17;1796150;79;21005;-63
2022/03/30 03:26:26;;;;;;;10.23;4.65;;;;;;;-0.26;78.23;98445.66;1790681;79;20955;-63
2022/03/30 03:28:53;;;;;;;8.50;3.87;;;;;;;-0.27;78.29;98441.42;1796317;77;21009;-63
2022/03/30 03:31:20;;;;;;;8.65;4.17;;;;;;;-0.28;78.45;98444.88;1796432;77;20965;-64
2022/03/30 03:33:47;;;;;;;;;;;;;;;-0.30;78.37;98449.20;1793463;77;22508;-62
2022/03/30 03:36:14;;;;;;;7.60;4.27;;;;;;;-0.31;78.39;98449.22;1800628;78;20182;-63
2022/03/30 03:38:43;;;;;;;9.43;4.97;;;;;;;-0.33;78.47;98451.84;1799742;78;20998;-63
2022/03/30 03:41:31;;;;;;;7.92;4.75;;;;;;;-0.28;78.98;98447.45;1857788;76;23233;-63
2022/03/30 03:43:58;;;;;;;7.33;4.20;;;;;;;-0.33;78.57;98454.41;1832298;77;21016;-62
2022/03/30 03:46:24;;;;;;;6.70;4.22;;;;;;;-0.27;78.59;98449.13;1834195;77;21354;-62
2022/03/30 03:48:51;;;;;;;8.37;4.33;;;;;;;-0.23;78.58;98455.84;1846239;76;20985;-63
2022/03/30 03:51:18;;;;;;;11.53;4.20;;;;;;;-0.21;79.01;98457.55;1836021;77;20984;-62
2022/03/30 03:53:44;;;;;;;6.83;4.03;;;;;;;-0.21;79.01;98457.55;1830932;75;21441;-62
2022/03/30 03:56:11;;;;;;;8.58;4.08;;;;;;;-0.26;78.96;98453.36;1832553;77;20921;-62
2022/03/30 03:58:43;;;;;;;12.80;5.07;;;;;;;-0.25;78.70;98451.22;1829287;77;21071;-62
2022/03/30 04:01:12;;;;;;;6.20;4.25;;;;;;;-0.19;78.77;98450.67;1829905;77;21549;-62
2022/03/30 04:03:39;;;;;;;12.18;5.17;;;;;;;-0.16;78.72;98453.16;1833088;76;21010;-62
2022/03/30 04:06:06;;;;;;;7.00;4.50;;;;;;;-0.18;78.62;98457.48;1834004;77;20988;-62
2022/03/30 04:08:34;;;;;;;5.45;4.58;;;;;;;-0.20;78.93;98454.09;1836879;77;20965;-62
2022/03/30 04:11:00;;;;;;;8.45;5.58;;;;;;;-0.23;78.78;98460.98;1836321;77;21096;-62
2022/03/30 04:13:27;;;;;;;7.30;5.42;;;;;;;-0.25;78.88;98461.48;1837701;75;21064;-63
2022/03/30 04:15:55;;;;;;;8.55;5.97;;;;;;;-0.27;78.81;98467.52;1834529;77;21080;-63
2022/03/30 04:18:23;;;;;;;5.05;4.55;;;;;;;-0.28;79.33;98474.38;1838018;77;21523;-62
2022/03/30 04:20:49;;;;;;;4.97;3.58;;;;;;;-0.41;80.18;98474.25;1832334;75;21038;-62
2022/03/30 04:23:16;;;;;;;2.70;2.17;;;;;;;-0.53;79.82;98484.80;1830555;77;21070;-62
2022/03/30 04:25:43;;;;;;;2.50;2.10;;;;;;;-0.68;79.74;98486.79;1831226;77;21240;-62
2022/03/30 04:28:10;;;;;;;2.87;1.92;;;;;;;-0.80;79.66;98492.19;1827675;77;21227;-62
2022/03/30 04:30:37;;;;;;;4.15;1.75;;;;;;;-0.88;79.86;98478.70;1830784;75;21402;-62
2022/03/30 04:33:03;;;;;;;3.12;1.70;;;;;;;-0.97;80.12;98505.35;1832731;77;21305;-62
2022/03/30 04:35:30;;;;;;;1.93;1.50;;;;;;;-1.10;79.80;98496.22;1830090;75;21113;-62
2022/03/30 04:37:58;;;;;;;5.58;1.30;;;;;;;-1.15;79.84;98497.61;1832963;77;21024;-62
2022/03/30 04:40:26;;;;;;;2.27;1.60;;;;;;;-1.24;79.89;98523.37;1834505;77;21015;-62
2022/03/30 04:42:54;;;;;;;3.35;1.42;;;;;;;-1.34;80.12;98510.36;1827292;77;20922;-62
2022/03/30 04:45:22;;;;;;;3.62;1.30;;;;;;;-1.40;80.17;98510.45;1836287;77;21134;-62
2022/03/30 04:47:50;;;;;;;3.27;1.50;;;;;;;-1.39;80.11;98518.55;1835847;77;21235;-63
2022/03/30 04:50:16;;;;;;;4.30;1.52;;;;;;;-1.43;80.08;98513.06;1839298;76;20950;-63
2022/03/30 04:52:43;;;;;;;1.65;1.40;;;;;;;-1.45;80.37;98540.44;1833991;77;21671;-63
2022/03/30 04:55:11;;;;;;;2.35;1.75;;;;;;;-1.49;80.51;98524.70;1836202;77;21037;-63
2022/03/30 04:57:38;;;;;;;;;;;;;;;-1.54;80.52;98521.38;1841964;75;21500;-63
2022/03/30 05:00:08;;;;;;;1.70;1.37;;;;;;;-1.54;80.94;98525.22;1836704;75;21898;-63
2022/03/30 05:02:36;;;;;;;1.95;1.67;;;;;;;-1.60;81.07;98514.23;1843323;77;21041;-63
2022/03/30 05:05:05;;;;;;;1.87;1.25;;;;;;;-1.63;81.18;98525.78;1812469;77;20992;-63
2022/03/30 05:07:31;;;;;;;2.40;1.32;;;;;;;-1.65;81.04;98539.06;1837768;76;20965;-64
2022/03/30 05:09:59;;;;;;;5.87;1.50;;;;;;;-1.64;81.34;98550.14;1833996;77;22318;-62
2022/03/30 05:12:25;;;;;;;1.82;1.37;;;;;;;-1.63;81.68;98552.66;1835849;77;21083;-62
2022/03/30 05:14:53;;;;;;;5.15;1.57;;;;;;;-1.65;81.63;98541.62;1838426;77;20998;-63
2022/03/30 05:17:20;;;;;;;1.30;1.10;;;;;;;-1.64;81.93;98542.02;1839110;77;20945;-63
2022/03/30 05:19:48;;;;;;;2.67;1.40;;;;;;;-1.67;82.23;98561.27;1837641;77;20910;-64
2022/03/30 05:22:15;;;;;;;2.50;1.00;;;;;;;-1.65;82.11;98540.34;1838687;77;20902;-63
2022/03/30 05:24:42;;;;;;;1.40;1.17;;;;;;;-1.63;82.50;98560.77;1837068;77;21971;-63
2022/03/30 05:27:09;;;;;;;2.10;1.57;;;;;;;-1.64;82.40;98571.45;1834099;77;21453;-63
2022/03/30 05:29:38;;;;;;;1.00;0.90;;;;;;;-1.78;82.33;98552.92;1834365;76;21538;-63
2022/03/30 05:34:46;;;;;;;0.80;0.68;;;;;;;-1.70;82.39;98583.52;1861691;76;21996;-62
2022/03/30 05:37:13;;;;;;;2.08;0.75;;;;;;;-1.76;82.40;98578.06;1844520;77;21040;-63
2022/03/30 05:39:41;;;;;;;3.40;0.80;;;;;;;-1.79;82.33;98594.75;1847277;77;21486;-62
2022/03/30 05:42:10;;;;;;;2.02;0.80;;;;;;;-1.79;82.62;98615.22;1844469;77;20969;-63
2022/03/30 05:44:37;;;;;;;1.10;0.80;;;;;;;-1.81;82.54;98604.16;1843984;77;21565;-63
2022/03/30 05:47:07;;;;;;;4.50;0.90;;;;;;;-1.88;82.82;98615.34;1840703;77;20993;-61
2022/03/30 05:49:37;;;;;;;2.50;0.95;;;;;;;-1.89;82.81;98607.26;1845163;77;20934;-61
2022/03/30 05:52:06;;;;;;;0.82;0.60;;;;;;;-1.95;83.17;98616.31;1781168;80;21724;-61
2022/03/30 05:54:35;;;;;;;3.17;1.10;;;;;;;-1.95;82.81;98611.20;1786140;78;21036;-62
2022/03/30 05:57:05;;;;;;;2.25;0.88;;;;;;;-1.87;83.06;98619.61;1778553;78;20986;-61
2022/03/30 05:59:40;;;;;;;1.70;0.80;;;;;;;-1.84;82.97;98630.63;1755371;79;21036;-62
2022/03/30 06:02:11;;;;;;;3.60;1.02;;;;;;;-1.82;82.97;98633.15;1807620;78;20926;-61
2022/03/30 06:04:41;;;;;;;1.47;0.80;;;;;;;-1.78;83.16;98623.30;1767046;78;21181;-62
2022/03/30 06:07:08;;;;;;;4.20;1.02;;;;;;;-1.75;83.18;98630.92;1784816;79;20969;-62
2022/03/30 06:09:35;;;;;;;1.82;1.12;;;;;;;-1.69;83.30;98632.10;1787736;79;21648;-62
2022/03/30 06:12:04;;;;;;;4.50;1.77;;;;;;;-1.64;83.39;98626.92;1792859;79;21060;-62
2022/03/30 06:14:33;;;;;;;2.80;1.00;;;;;;;-1.53;83.42;98625.04;1786153;79;20996;-62
2022/03/30 06:17:06;;;;;;;6.08;2.65;;;;;;;-1.42;83.63;98665.84;1787733;79;21086;-62
2022/03/30 06:19:34;;;;;;;6.40;1.40;;;;;;;-1.39;83.43;98645.30;1789448;79;20987;-63
2022/03/30 06:22:08;;;;;;;1.37;1.10;;;;;;;-1.32;83.52;98634.07;1786141;79;20954;-62
2022/03/30 06:24:35;;;;;;;1.20;0.80;;;;;;;-1.30;83.41;98627.22;1789317;79;21621;-62
2022/03/30 06:27:04;;;;;;;1.32;1.00;;;;;;;-1.26;83.40;98648.08;1787998;79;20996;-63
2022/03/30 06:29:33;;;;;;;4.15;2.55;;;;;;;-1.25;83.37;98643.36;1795134;79;21199;-65
2022/03/30 06:32:01;;;;;;;3.25;1.00;;;;;;;-1.18;83.42;98650.48;1779041;78;21025;-63
2022/03/30 06:34:28;;;;;;;1.67;1.00;;;;;;;-1.15;83.39;98674.36;1769959;80;21144;-63
2022/03/30 06:36:55;;;;;;;2.37;0.90;;;;;;;-1.16;83.18;98653.44;1772983;80;20942;-62
2022/03/30 06:39:23;;;;;;;0.90;0.80;;;;;;;-1.19;83.14;98661.17;1775993;80;21444;-63
2022/03/30 06:41:50;;;;;;;;;;;;;;;-1.25;83.14;98666.41;1784735;80;21605;-64
2022/03/30 06:44:17;;;;;;;1.82;1.15;;;;;;;-1.33;83.20;98665.68;1777574;80;20082;-63
2022/03/30 06:46:44;;;;;;;3.20;1.20;;;;;;;-1.38;83.16;98662.34;1774234;80;21064;-63
2022/03/30 06:49:11;;;;;;;;;;;;;;;-1.44;83.17;98675.25;1777186;80;21028;-62
2022/03/30 06:51:39;;;;;;;1.80;1.02;;;;;;;-1.42;83.32;98685.04;1774344;79;20152;-63
2022/03/30 06:54:06;;;;;;;4.37;1.40;;;;;;;-1.42;83.18;98664.12;1773303;80;26516;-64
2022/03/30 06:56:33;;;;;;;5.05;1.65;;;;;;;-1.41;83.14;98681.16;1778116;78;20945;-63
2022/03/30 06:59:01;;;;;;;5.37;1.30;;;;;;;-1.47;83.07;98682.98;1776311;80;27427;-63
2022/03/30 07:01:27;;;;;;;2.08;1.02;;;;;;;-1.44;83.19;98685.49;1774389;78;20990;-63
2022/03/30 07:03:54;;;;;;;1.37;1.07;;;;;;;-1.40;83.21;98692.24;1749084;80;20981;-62
2022/03/30 07:06:21;;;;;;;1.82;0.90;;;;;;;-1.42;82.99;98686.33;1768450;80;21993;-62
2022/03/30 07:11:33;;;;;;;2.15;1.20;;;;;;;-1.39;82.96;98691.39;1773662;78;20938;-61
2022/03/30 07:13:59;;;;;;;1.60;1.10;;;;;;;-1.39;82.97;98711.88;1754741;80;20997;-61
2022/03/30 07:16:26;;;;;;;1.77;1.05;;;;;;;-1.40;83.04;98694.80;1770908;80;21512;-62
2022/03/30 07:18:54;;;;;;;1.52;0.98;;;;;;;-1.41;83.04;98685.44;1784961;79;21185;-61
2022/03/30 07:21:21;;;;;;;3.00;1.35;;;;;;;-1.38;83.06;98689.23;1774586;80;26468;-62
2022/03/30 07:23:47;;;;;;;4.12;1.20;;;;;;;-1.31;83.18;98693.41;1771368;79;21492;-61
2022/03/30 07:26:14;;;;;;;2.65;1.30;;;;;;;-1.26;83.12;98724.91;1793638;79;22536;-61
2022/03/30 07:28:41;;;;;;;3.67;1.53;;;;;;;-1.25;83.01;98720.19;1776324;80;20992;-61
2022/03/30 07:31:08;;;;;;;1.90;1.30;;;;;;;-1.16;83.10;98720.03;1774375;80;22796;-62
2022/03/30 07:33:34;;;;;;;2.40;1.30;;;;;;;-1.00;83.11;98724.92;1775454;79;20946;-62
2022/03/30 07:36:02;;;;;;;2.22;1.00;;;;;;;-0.84;83.03;98728.93;1808371;78;21037;-61
2022/03/30 07:38:29;;;;;;;;;;;;;;;-0.69;83.04;98723.52;1809177;78;21025;-62
2022/03/30 07:41:00;;;;;;;2.08;1.05;;;;;;;-0.57;82.09;98760.06;1809509;78;20763;-61
2022/03/30 07:43:24;;;;;;;2.20;1.10;;;;;;;-0.57;82.46;98735.71;1809299;78;21246;-62
2022/03/30 07:45:53;;;;;;;4.23;1.43;;;;;;;-0.46;82.62;98738.92;1804293;78;21080;-63
2022/03/30 07:48:23;;;;;;;4.10;1.35;;;;;;;-0.39;82.38;98743.48;1765183;79;21002;-62
2022/03/30 07:50:50;;;;;;;1.82;0.93;;;;;;;-0.40;82.27;98734.95;1809530;78;20986;-63
2022/03/30 07:53:17;;;;;;;2.67;1.22;;;;;;;-0.47;81.69;98746.22;1813264;78;21092;-64
2022/03/30 07:55:44;;;;;;;4.03;1.47;;;;;;;-0.47;82.22;98740.65;1808215;78;21057;-63
2022/03/30 07:58:11;;;;;;;1.30;0.98;;;;;;;-0.35;82.05;98748.55;1772635;80;20999;-62
2022/03/30 08:00:38;;;;;;;3.37;0.98;;;;;;;-0.23;81.87;98767.54;1778027;80;21083;-63
2022/03/30 08:03:05;;;;;;;2.37;1.10;;;;;;;-0.08;81.79;98756.60;1774209;80;21060;-63
2022/03/30 08:05:33;;;;;;;2.60;1.10;;;;;;;0.01;81.85;98761.55;1786592;78;21057;-62
2022/03/30 08:08:01;;;;;;;1.60;1.10;;;;;;;0.10;81.78;98771.62;1764015;78;21325;-63
2022/03/30 08:10:29;;;;;;;;;;;;;;;0.09;81.32;98787.91;1799774;79;20942;-62
2022/03/30 08:12:57;;;;;;;1.00;0.78;;;;;;;-0.02;80.93;98765.02;1791019;79;20092;-64
2022/03/30 08:15:24;;;;;;;1.75;1.00;;;;;;;-0.07;81.15;98784.78;1779092;79;21366;-62
2022/03/30 08:17:52;;;;;;;5.30;1.00;;;;;;;-0.07;81.28;98776.24;1780998;78;21089;-62
2022/03/30 08:23:04;;;;;;;2.35;1.40;;;;;;;-0.01;80.93;98769.70;1767601;80;20159;-63
2022/03/30 08:25:32;;;;;;;2.42;1.27;;;;;;;-0.13;80.51;98776.37;1780821;79;21577;-63
2022/03/30 08:28:02;;;;;;;1.57;0.98;;;;;;;-0.20;80.58;98792.73;1777076;79;21047;-62
2022/03/30 08:30:32;;;;;;;1.15;1.00;;;;;;;-0.14;80.42;98788.77;1805303;78;20985;-63
2022/03/30 08:33:01;;;;;;;2.22;0.90;;;;;;;-0.08;80.50;98793.81;1772697;78;21987;-61
2022/03/30 08:35:30;;;;;;;5.20;2.05;;;;;;;0.02;80.44;98794.46;1811755;78;20939;-64
2022/03/30 08:37:57;;;;;;;1.37;0.85;;;;;;;0.24;80.93;98793.61;1807441;78;21668;-63
2022/03/30 08:40:25;;;;;;;2.62;1.00;;;;;;;0.52;80.54;98793.88;1818140;78;21492;-63
2022/03/30 08:42:55;;;;;;;;;;;;;;;0.50;80.22;98810.59;1818575;78;20973;-63
2022/03/30 08:45:24;;;;;;;2.25;1.32;;;;;;;0.43;79.87;98800.05;1793585;78;21079;-63
2022/03/30 08:47:51;;;;;;;2.80;1.42;;;;;;;0.24;79.76;98802.59;1787871;78;20949;-64
2022/03/30 08:50:22;;;;;;;2.10;1.17;;;;;;;0.13;79.83;98804.92;1784392;78;21527;-63
2022/03/30 08:52:49;;;;;;;1.72;0.90;;;;;;;-0.01;79.96;98822.31;1790687;78;20977;-63
2022/03/30 08:55:18;;;;;;;2.20;1.60;;;;;;;-0.15;79.80;98811.47;1776793;79;22439;-63
2022/03/30 08:57:44;;;;;;;2.25;1.00;;;;;;;-0.29;79.63;98817.69;1784356;79;21098;-64
2022/03/30 09:00:19;;;;;;;4.03;1.35;;;;;;;-0.29;79.94;98834.36;1792070;78;21538;-63
2022/03/30 09:03:00;;;;;;;6.53;1.12;;;;;;;-0.18;80.08;98826.92;1781200;79;21977;-63
2022/03/30 09:05:47;;;;;;;2.30;1.37;;;;;;;-0.10;79.97;98821.21;1782284;79;21024;-64
2022/03/30 09:08:24;;;;;;;4.80;1.10;;;;;;;-0.06;79.95;98844.64;1686888;84;21191;-64
2022/03/30 09:10:52;;;;;;;2.62;1.02;;;;;;;-0.14;79.64;98836.23;1687922;84;22675;-64
2022/03/30 09:13:20;;;;;;;3.30;1.35;;;;;;;-0.40;79.68;98845.23;1643968;85;21432;-63
2022/03/30 09:15:50;;;;;;;3.15;0.85;;;;;;;-0.50;79.99;98853.98;1677327;84;21001;-63
2022/03/30 09:18:18;;;;;;;0.90;0.80;;;;;;;-0.44;80.06;98843.61;1639516;85;21089;-63
2022/03/30 09:20:59;;;;;;;1.75;0.80;;;;;;;-0.29;80.11;98842.50;1679569;84;21082;-63
2022/03/30 09:23:27;;;;;;;1.90;1.00;;;;;;;-0.15;80.03;98842.25;1650639;85;21883;-63
2022/03/30 09:25:54;;;;;;;1.75;0.90;;;;;;;-0.04;80.01;98832.64;1681604;84;21127;-63
2022/03/30 09:28:22;;;;;;;;;;;;;;;0.08;80.16;98832.39;1658245;84;21123;-63
2022/03/30 09:30:51;;;;;;;1.32;0.78;;;;;;;0.12;79.70;98846.88;1651226;85;20177;-65
2022/03/30 09:33:20;;;;;;;0.82;0.70;;;;;;;0.27;80.05;98837.19;1654608;85;21001;-63
2022/03/30 09:35:48;;;;;;;1.72;0.80;;;;;;;0.48;79.31;98834.20;1650563;85;21136;-63
2022/03/30 09:38:21;;;;;;;2.10;0.70;;;;;;;0.54;79.14;98846.91;1678113;84;21662;-64
2022/03/30 09:40:52;;;;;;;1.32;0.72;;;;;;;0.35;76.37;98843.02;1675083;84;20976;-63
2022/03/30 09:43:23;;;;;;;2.90;1.10;;;;;;;0.40;78.36;98829.66;1648757;85;21095;-63
2022/03/30 09:46:04;;;;;;;1.45;0.72;;;;;;;0.53;78.58;98850.33;1676577;84;21596;-64
2022/03/30 09:48:35;;;;;;;3.30;1.30;;;;;;;0.47;77.76;98832.48;1677637;84;21676;-64
2022/03/30 09:51:03;;;;;;;2.00;0.85;;;;;;;0.36;77.56;98834.42;1654101;85;21119;-64
2022/03/30 09:53:31;;;;;;;1.15;0.90;;;;;;;0.31;78.12;98837.52;1648320;85;21075;-64
2022/03/30 09:56:08;;;;;;;1.57;0.80;;;;;;;0.45;78.46;98841.97;1678589;84;21597;-65
2022/03/30 09:58:41;;;;;;;2.08;0.80;;;;;;;0.62;77.88;98846.76;1680747;84;21024;-63
2022/03/30 10:01:21;;;;;;;1.25;0.70;;;;;;;0.53;77.10;98843.91;1656769;85;22342;-64
2022/03/30 10:04:04;;;;;;;1.72;0.90;;;;;;;0.36;76.82;98849.83;1680087;84;21037;-63
2022/03/30 10:06:40;;;;;;;2.22;0.95;;;;;;;0.31;76.67;98851.64;1641661;85;22312;-64
2022/03/30 10:09:06;;;;;;;3.52;0.82;;;;;;;0.33;77.13;98843.48;1666261;84;21176;-64
2022/03/30 10:11:33;;;;;;;1.47;0.90;;;;;;;0.62;76.92;98846.76;1655987;84;21030;-64
2022/03/30 10:14:05;;;;;;;1.80;0.88;;;;;;;0.84;76.73;98839.41;1658557;84;21622;-64
2022/03/30 10:16:32;;;;;;;1.57;0.78;;;;;;;0.89;75.71;98835.86;1638848;85;21116;-64
2022/03/30 10:18:58;;;;;;;2.03;0.80;;;;;;;0.84;75.56;98847.11;1636751;85;21101;-63
2022/03/30 10:22:04;;;;;;;3.22;0.85;;;;;;;0.82;75.42;98842.03;1647962;85;21013;-64
2022/03/30 10:25:04;;;;;;;1.02;0.70;;;;;;;0.82;75.29;98848.90;1659460;84;21786;-64
2022/03/30 10:28:01;;;;;;;1.90;0.70;;;;;;;0.87;74.99;98841.94;1650432;85;21100;-62
2022/03/30 10:30:35;;;;;;;1.35;0.50;;;;;;;1.02;74.81;98845.88;1635524;84;21011;-63
2022/03/30 10:33:05;;;;;;;3.50;0.60;;;;;;;1.09;74.19;98837.13;1636121;85;21030;-63
2022/03/30 10:35:50;;;;;;;3.92;1.07;;;;;;;1.26;74.01;98834.16;1635377;84;21366;-62
2022/03/30 10:38:17;;;;;;;2.20;0.75;;;;;;;1.24;74.17;98837.23;1636092;84;21099;-66
2022/03/30 10:40:44;;;;;;;2.77;1.30;;;;;;;1.48;73.96;98840.92;1635854;84;22068;-64
2022/03/30 10:43:26;;;;;;;2.40;0.72;;;;;;;1.82;74.06;98844.81;1635512;84;21841;-64
2022/03/30 10:46:04;;;;;;;2.85;0.85;;;;;;;1.99;73.81;98833.63;1640968;85;21065;-64
2022/03/30 10:48:37;;;;;;;1.72;0.75;;;;;;;2.45;73.93;98824.61;1623902;86;21603;-63
2022/03/30 10:51:14;;;;;;;2.20;0.70;;;;;;;2.47;72.78;98827.16;1622264;86;21120;-63
2022/03/30 10:53:50;;;;;;;1.90;1.05;;;;;;;2.68;71.90;98838.56;1634275;85;21113;-62
2022/03/30 10:56:24;;;;;;;1.52;0.90;;;;;;;2.72;70.45;98848.33;1627756;85;21130;-64
2022/03/30 10:58:56;;;;;;;1.62;0.57;;;;;;;2.35;71.12;98853.24;1641107;85;21061;-63
2022/03/30 11:01:30;;;;;;;2.25;0.75;;;;;;;1.98;70.87;98840.92;1622195;85;21079;-62
2022/03/30 11:04:03;;;;;;;1.55;0.82;;;;;;;1.70;69.31;98846.39;1620529;85;21074;-63
2022/03/30 11:06:34;;;;;;;1.52;0.80;;;;;;;1.71;71.52;98844.20;1651019;83;21491;-64
2022/03/30 11:09:07;;;;;;;2.37;0.80;;;;;;;2.08;72.01;98845.84;1692874;81;21068;-64
2022/03/30 11:11:52;;;;;;;0.80;0.60;;;;;;;2.22;71.43;98856.62;1686878;83;21553;-64
2022/03/30 11:14:49;;;;;;;1.98;0.90;;;;;;;2.30;69.26;98858.96;1682692;83;21068;-64
2022/03/30 11:17:25;;;;;;;1.00;0.70;;;;;;;2.31;70.77;98840.91;1683246;83;20941;-65
2022/03/30 11:20:00;;;;;;;3.05;1.05;;;;;;;2.21;70.88;98836.88;1672309;83;22270;-64
2022/03/30 11:22:34;;;;;;;1.45;0.80;;;;;;;2.14;70.98;98852.12;1690013;83;21527;-62
2022/03/30 11:25:23;;;;;;;2.42;0.80;;;;;;;1.94;70.11;98859.92;1695284;84;20997;-63
2022/03/30 11:28:08;;;;;;;3.47;0.75;;;;;;;1.77;70.22;98853.09;1697461;83;21077;-64
2022/03/30 11:30:43;;;;;;;1.65;0.80;;;;;;;1.87;70.53;98855.80;1696318;83;21071;-63
2022/03/30 11:33:22;;;;;;;2.58;0.98;;;;;;;1.85;69.96;98860.17;1697631;82;21102;-64
2022/03/30 11:36:13;;;;;;;3.00;1.20;;;;;;;1.67;69.45;98860.63;1700286;84;21066;-63
2022/03/30 11:38:43;;;;;;;1.55;0.80;;;;;;;1.54;69.57;98855.79;1715360;82;21035;-62
2022/03/30 11:41:11;;;;;;;3.27;1.35;;;;;;;1.99;70.18;98850.36;1719237;81;21509;-62
2022/03/30 11:46:33;;;;;;;2.40;0.68;;;;;;;2.55;69.87;98843.66;1731712;82;21953;-62
2022/03/30 11:49:03;;;;;;;2.42;0.80;;;;;;;2.44;68.49;98847.86;1691099;83;21151;-62
2022/03/30 11:51:32;;;;;;;2.25;1.17;;;;;;;2.13;68.30;98851.70;1683708;84;21020;-63
2022/03/30 11:54:20;;;;;;;0.70;0.50;;;;;;;2.10;68.54;98856.93;1723971;82;21438;-63
2022/03/30 11:56:50;;;;;;;2.02;1.10;;;;;;;2.09;68.03;98847.53;1723703;82;20933;-63
2022/03/30 11:59:19;;;;;;;1.02;0.70;;;;;;;2.22;68.36;98848.89;1726819;82;22506;-63
2022/03/30 12:01:56;;;;;;;1.10;0.70;;;;;;;2.25;62.50;98843.66;1727021;82;21080;-63